KVPS Airport (Eglin Afb/Destin-Ft Walton Beach) Information

FAA: VPS - ICAO: KVPS

KVPS Airport Location

State Florida
County Okaloosa
City Valparaiso/Destin-Ft Walton Beach
KVPS Airport is 1 miles southwest of Valparaiso/Destin-Ft Walton Beach, FL.
Latitude 30-28-59.5899N
Longitude 086-31-33.7596W
Elevation 84ft

KVPS Airport METARs

METAR KVPS 071855Z 20005KT 10SM SCT018 26/21 A3025 RMK AO2A SLP250 T02570168
Altimeter 30.25"
Temperature 25.7°C (78.3°F)
Wind 200° at 5KT
Clouds scattered at 1,800ft
Visibility 10.0mi
Time observed: 2022-12-07T18:55:00Z

KVPS Airport Details

Status Operational
Activation March 1941
Ownership Military - Air Force
Usage Public
Chart NEW ORLEANS
ATC on-site Yes
Beacon schedule sunset-sunrise
Beacon color clear green

KVPS Airport Contacts

Owner USAF
Owner address DEPT OF THE AF HDQRTS AFMC, EGLIN AFB, FL 32542
Owner phone 850-882-5313
Manager VIRGIL RUSH
Manager address 3319 SE 40 WAY, TRENTON, FL 32693
Manager phone 352-463-2729

KVPS Airport (Eglin Afb/Destin-Ft Walton Beach) Radio Frequencies

KVPS (Airport) Radio Frequencies

UNICOM N/A
Common traffic advisory frequency (CTAF) N/A